Date,TemperatureHighF,TemperatureAvgF,TemperatureLowF,DewpointHighF,DewpointAvgF,DewpointLowF,HumidityHigh,HumidityAvg,HumidityLow,PressureMaxIn,PressureMinIn,WindSpeedMaxMPH,WindSpeedAvgMPH,GustSpeedMaxMPH,PrecipitationSumIn
2013-1-1,31.7,26.7,15.2,25.8,14.7,3.0,80,61,42,29.89,29.63,13,6,22,0.00
2013-1-2,23.9,14.8,7.6,9.9,3.4,-5.5,75,61,46,30.04,29.82,12,5,25,0.00
2013-1-3,24.5,14.9,6.1,7.6,2.3,-4.8,76,58,41,30.08,29.93,9,3,19,0.00
2013-1-4,34.4,26.7,15.4,25.1,18.9,7.2,88,72,63,29.93,29.71,14,5,20,0.00
2013-1-5,36.1,31.7,23.6,26.5,18.6,11.5,75,59,41,30.28,29.76,16,4,26,0.00
2013-1-6,38.1,29.5,22.2,27.6,22.7,13.7,87,76,63,30.25,29.92,7,2,14,0.00
2013-1-7,32.4,27.2,21.3,27.3,20.5,15.7,89,76,60,30.40,29.95,9,3,14,0.00
2013-1-8,42.9,33.7,26.2,27.5,24.7,15.4,90,70,49,30.36,30.19,14,4,22,0.00
2013-1-9,42.3,33.8,27.0,35.4,28.6,23.8,92,81,72,30.41,29.89,11,2,18,0.00
2013-1-10,44.0,39.4,32.6,32.5,27.2,22.3,82,62,49,30.52,29.92,17,7,31,0.00
2013-1-11,40.2,33.7,27.9,37.1,26.4,20.6,90,74,63,30.54,30.25,10,2,14,0.01
2013-1-12,42.6,40.0,36.8,39.9,38.4,35.4,96,94,88,30.26,30.12,5,1,10,0.03
2013-1-13,46.1,41.6,39.1,45.2,40.6,38.1,97,96,96,30.17,29.96,7,2,14,0.01
2013-1-14,58.6,46.0,36.8,49.6,40.3,27.0,97,82,57,30.21,29.85,10,3,15,0.00
2013-1-15,38.7,35.0,31.1,28.2,25.0,22.0,82,67,55,30.31,30.21,8,1,13,0.00
2013-1-16,32.9,30.9,29.4,31.2,27.3,21.0,95,87,63,30.27,29.79,7,2,14,0.00
2013-1-17,39.2,30.3,17.6,31.8,21.9,1.7,94,72,34,30.12,29.77,11,3,21,0.25
2013-1-18,21.0,16.2,10.6,5.2,-2.1,-10.3,55,44,31,30.40,30.10,11,5,17,0.00
2013-1-19,41.3,33.7,19.1,29.9,20.4,4.7,67,58,51,30.35,29.87,13,5,25,0.09
2013-1-20,49.1,39.8,26.7,35.6,26.6,8.2,80,60,35,29.87,29.45,19,8,34,0.07
2013-1-21,26.7,22.7,17.4,13.7,5.1,-1.4,71,47,32,30.06,29.85,14,5,25,0.00
2013-1-22,21.9,17.3,11.9,14.4,8.7,4.1,78,69,58,29.85,29.75,10,4,20,0.00
2013-1-26,19.6,16.3,14.1,2.1,-1.5,-5.5,57,45,35,30.14,30.02,11,6,23,0.00
2013-1-27,27.9,18.6,12.4,5.6,0.2,-4.9,60,45,32,30.42,30.13,14,4,20,0.00
2013-1-28,20.2,16.4,15.5,4.5,-0.1,-5.0,57,48,38,30.42,30.36,5,1,5,0.00
2013-1-31,45.4,36.4,30.1,28.6,17.8,12.0,60,46,42,29.47,0.00,21,11,38,0.33
2013-2-1,30.0,25.9,16.9,18.0,9.3,2.8,61,49,37,30.05,29.47,18,7,30,0.00
2013-2-2,26.1,20.9,14.1,15.3,7.2,2.4,66,55,44,30.22,30.03,8,2,15,0.00
2013-2-3,28.0,25.2,21.9,18.3,15.8,13.2,83,68,57,30.03,29.70,9,3,19,0.00
2013-2-4,29.5,24.4,18.2,15.7,8.9,-0.3,75,53,32,29.88,29.65,14,6,28,0.00
2013-2-5,26.9,19.4,13.5,13.7,4.1,-1.8,66,51,41,30.03,29.88,8,2,13,0.00
2013-2-6,37.1,26.5,19.6,25.7,14.7,-4.5,83,63,34,30.29,29.92,10,3,20,0.00
2013-2-7,27.2,17.3,12.4,1.4,-3.2,-6.3,52,40,25,30.55,30.28,9,4,18,0.00
2013-2-8,16.9,14.2,11.3,14.7,10.3,-0.1,91,85,49,30.54,29.84,19,8,32,0.00
2013-2-9,20.9,16.1,12.1,14.1,10.6,7.7,90,79,64,30.09,29.61,20,11,41,0.00
2013-2-10,37.4,25.2,15.3,19.8,6.4,0.9,77,47,25,30.37,30.09,10,3,24,0.00
2013-2-11,40.7,28.6,20.6,39.6,25.5,14.5,96,88,73,30.36,29.59,7,1,15,0.51
2013-2-12,44.9,36.8,30.5,32.3,29.8,27.9,96,77,54,29.78,29.54,13,4,22,0.01
2013-2-13,42.6,35.6,30.4,30.9,26.9,24.1,82,71,53,29.83,29.73,7,2,12,0.00
2013-2-14,46.3,35.7,30.4,29.3,23.8,19.4,80,63,37,29.99,29.71,8,2,16,0.00
2013-2-15,44.6,36.3,26.9,37.6,31.3,23.8,91,82,71,30.00,29.90,10,3,18,0.00
2013-2-16,37.1,33.9,29.0,34.3,28.9,14.9,93,82,56,29.94,29.77,11,3,20,0.01
2013-2-17,29.0,22.7,19.8,18.2,12.7,4.7,87,66,49,29.78,29.25,18,9,33,0.00
2013-2-18,33.3,23.6,16.6,10.8,4.8,-0.6,60,45,27,30.07,29.50,17,7,30,0.00
2013-2-19,42.9,32.6,21.3,41.6,19.0,-0.1,95,60,33,30.12,29.56,10,3,20,0.46
2013-2-20,42.5,34.3,27.6,41.2,27.1,17.4,96,75,59,29.67,29.45,13,5,21,0.05
2013-2-21,29.6,26.8,23.2,22.4,16.3,9.5,75,64,50,30.15,29.67,11,6,22,0.00
2013-2-22,40.4,32.8,27.6,28.0,23.0,19.8,89,68,48,30.41,30.15,9,3,18,0.00
2013-2-23,37.2,33.2,29.9,33.7,29.6,24.8,93,86,79,30.37,30.02,10,3,16,0.07
2013-2-24,35.6,31.4,28.6,33.7,30.0,27.4,95,95,91,30.02,29.79,9,3,19,0.07
2013-2-25,44.1,32.8,27.1,33.2,29.0,25.3,95,86,60,30.25,29.92,6,1,10,0.22
2013-2-26,42.6,36.6,31.8,32.2,30.2,27.9,95,78,61,30.36,30.24,7,2,10,0.01
2013-2-27,38.7,34.8,32.1,35.0,32.2,29.6,96,90,75,30.24,29.64,18,7,28,0.40
2013-2-28,41.1,36.4,32.3,40.0,35.3,30.5,96,96,93,29.64,29.53,13,4,24,0.61
2013-3-1,36.0,33.5,32.0,31.8,30.2,29.1,95,88,77,29.68,29.54,8,4,17,0.00
2013-3-2,44.2,35.3,31.6,32.5,30.6,29.0,95,84,58,29.66,29.60,8,3,18,0.04
2013-3-3,42.4,36.2,31.6,35.0,30.9,27.0,95,82,66,29.63,29.54,8,2,14,0.08
2013-3-4,37.7,33.6,32.4,29.1,26.3,23.7,85,74,66,29.69,29.50,11,5,21,0.00
2013-3-5,45.6,38.4,32.6,35.6,31.5,24.9,87,76,65,30.11,29.69,11,4,18,0.00
2013-3-6,39.9,35.7,32.2,33.0,29.9,27.1,92,79,67,30.24,30.11,15,8,30,0.00
2013-3-7,34.4,32.6,32.3,27.4,26.0,25.0,82,76,71,30.20,30.14,15,9,25,0.00
2013-3-8,46.7,40.2,31.6,26.8,24.4,22.3,75,54,40,30.19,30.05,15,8,26,0.00
2013-3-9,47.4,36.8,30.2,32.8,27.5,23.2,93,70,43,30.39,30.19,12,4,21,0.00
2013-3-10,41.1,34.5,27.7,32.2,28.9,24.6,92,80,66,30.44,30.31,6,2,12,0.00
2013-3-11,44.2,38.7,35.6,39.0,35.3,31.9,94,88,78,30.33,30.15,10,4,18,0.00
2013-3-12,46.0,42.9,39.6,45.2,41.2,38.0,97,94,90,30.17,29.73,13,4,27,0.76
2013-3-13,48.6,42.7,36.3,43.9,38.4,29.7,97,86,66,29.74,29.66,9,2,17,0.02
2013-3-14,39.7,33.2,22.3,29.9,22.6,8.5,85,66,44,29.76,29.61,11,4,22,0.00
2013-3-15,38.7,27.0,17.9,26.0,13.0,5.3,80,56,38,29.81,29.60,11,4,20,0.00
2013-3-16,36.2,30.9,25.7,26.7,16.6,11.7,83,56,41,29.90,29.63,9,4,19,0.00
2013-3-17,33.3,26.7,21.1,14.6,8.7,1.5,68,47,29,30.33,29.90,13,4,25,0.00
2013-3-18,35.2,27.0,18.6,22.2,9.1,-0.5,65,47,27,30.46,30.28,9,3,17,0.00
2013-3-19,33.6,29.3,23.8,30.2,26.5,20.3,95,90,59,30.28,29.67,17,8,31,0.00
2013-3-20,36.9,29.2,21.9,28.1,22.4,19.6,94,77,50,29.75,29.62,16,6,26,0.00
2013-3-21,39.7,32.0,26.0,27.0,21.3,14.7,91,65,41,29.78,29.61,11,3,19,0.06
2013-3-22,39.3,32.4,27.2,26.2,20.7,17.2,88,63,45,29.67,29.59,9,3,16,0.00
2013-3-23,41.2,33.9,26.9,24.9,21.7,17.3,75,61,43,29.68,29.52,14,7,26,0.00
2013-3-24,47.7,38.7,32.1,28.2,25.8,23.6,74,60,42,29.80,29.68,12,3,23,0.00
2013-3-25,43.9,36.9,30.7,35.4,29.6,25.9,84,75,64,29.79,29.58,10,3,16,0.00
2013-3-26,50.9,40.8,33.1,28.1,25.9,22.0,74,57,35,29.73,29.56,9,4,20,0.00
2013-3-27,50.4,39.8,31.2,36.7,30.4,24.3,93,70,45,29.87,29.72,9,3,16,0.10
2013-3-28,50.6,41.6,35.9,36.2,33.8,30.4,93,75,50,29.98,29.86,7,2,14,0.01
2013-3-29,55.6,45.6,37.8,36.7,32.4,29.3,79,61,41,30.02,29.93,8,2,13,0.00
2013-3-30,52.6,42.8,35.9,37.0,31.1,21.6,82,64,34,30.09,29.98,10,2,18,0.00
2013-3-31,47.7,41.2,31.2,40.4,31.2,17.5,85,68,44,30.12,29.84,10,2,19,0.00
2013-4-1,50.9,42.7,35.7,44.9,37.3,17.1,95,82,45,29.84,29.48,13,5,25,0.70
2013-4-2,39.4,33.5,29.2,18.0,13.6,7.9,56,44,31,29.84,29.69,15,7,29,0.00
2013-4-3,45.9,36.3,29.2,20.8,14.6,7.9,70,43,23,30.06,29.82,15,7,25,0.00
2013-4-4,50.9,39.5,31.2,35.4,22.4,9.9,79,53,21,30.22,29.97,12,4,22,0.00
2013-4-5,50.4,42.9,37.5,38.8,31.0,24.6,78,63,41,29.97,29.63,11,5,20,0.00
2013-4-6,42.7,34.6,28.5,24.9,11.5,4.4,65,40,22,30.35,29.82,13,5,27,0.00
2013-4-7,45.7,40.3,30.2,39.4,30.4,12.9,86,68,45,30.35,29.97,16,6,26,0.00
2013-4-8,62.4,48.6,41.2,40.1,37.6,32.9,88,68,35,30.13,29.91,9,3,16,0.00
2013-4-9,50.8,44.0,41.3,45.2,40.6,35.6,95,88,73,30.12,29.88,8,2,15,0.17
2013-4-10,51.6,43.8,41.3,45.8,41.7,39.3,96,92,79,30.01,29.89,7,2,13,0.42
2013-4-11,48.9,44.3,40.8,42.7,35.5,18.5,96,73,41,30.18,29.86,11,3,19,0.05
2013-4-12,40.8,36.0,33.6,34.9,26.8,16.1,95,72,41,30.26,29.89,13,6,22,0.27
2013-4-13,48.8,38.7,33.4,38.6,35.2,32.1,95,87,66,29.93,29.80,9,3,16,0.06
2013-4-14,50.4,43.8,39.2,41.8,37.5,32.3,94,79,60,30.20,29.90,7,2,12,0.04
2013-4-15,51.1,42.4,35.7,40.8,36.1,31.3,94,79,56,30.42,30.20,9,3,17,0.00
2013-4-16,51.1,45.2,40.1,47.2,41.4,38.5,95,87,75,30.42,29.96,15,5,32,0.00
2013-4-17,62.2,53.8,44.8,51.4,35.5,27.1,88,52,30,30.34,29.96,13,4,23,0.00
2013-4-18,49.1,44.0,37.8,41.2,34.7,27.5,86,70,51,30.49,30.18,10,3,16,0.00
2013-4-19,55.9,49.0,44.3,51.7,46.8,41.1,97,92,84,30.18,29.62,14,5,24,0.00
2013-4-20,56.4,51.2,44.0,55.6,39.2,23.5,97,68,38,30.15,29.57,14,6,27,0.22
2013-4-21,54.4,43.1,36.0,31.7,23.6,16.4,74,47,24,30.70,30.15,9,3,17,0.00
2013-4-22,47.7,41.5,35.7,38.1,29.2,20.1,78,62,41,30.75,30.65,12,4,18,0.00
2013-4-23,42.1,39.0,34.7,40.1,35.3,29.9,95,87,71,30.65,30.20,10,4,20,0.03
2013-4-24,62.4,47.7,41.7,51.3,44.3,40.1,96,88,64,30.20,29.78,10,4,19,0.05
2013-4-25,63.2,52.1,45.2,49.2,40.6,31.3,95,67,37,30.28,29.77,12,4,22,0.04
2013-4-26,53.6,45.8,38.0,39.8,35.2,30.2,91,67,47,30.45,30.28,12,3,17,0.00
2013-4-27,53.4,45.9,37.9,45.5,40.7,36.1,95,83,58,30.42,30.31,11,2,15,0.00
2013-4-28,56.4,48.5,40.0,46.4,41.9,38.6,95,79,65,30.35,30.26,9,2,13,0.00
2013-4-29,57.2,48.9,42.3,49.1,44.4,40.1,95,85,72,30.28,30.21,6,2,12,0.00
2013-4-30,60.0,49.7,40.8,47.9,43.1,38.3,95,79,52,30.39,30.24,7,2,11,0.00
2013-5-1,58.1,50.3,40.6,47.0,41.3,32.3,91,72,47,30.48,30.37,10,2,14,0.00
2013-5-2,61.2,49.0,44.3,48.4,42.4,36.6,95,79,59,30.52,30.40,14,3,23,0.00
2013-5-3,54.6,48.2,41.9,44.5,41.2,37.3,90,77,66,30.55,30.39,10,3,19,0.00
2013-5-4,53.9,46.9,40.1,43.4,41.3,37.8,94,81,65,30.40,30.33,10,2,15,0.00
2013-5-5,53.7,46.7,38.2,45.0,40.8,36.1,94,80,60,30.35,30.26,9,3,17,0.00
2013-5-6,55.2,46.6,41.4,48.0,43.7,40.0,96,90,75,30.29,30.18,9,3,16,0.01
2013-5-7,59.1,49.9,44.0,52.4,47.3,42.9,96,91,76,30.19,30.11,9,2,14,0.00
2013-5-8,62.8,55.1,48.5,56.3,52.3,47.4,97,91,77,30.25,30.11,7,2,10,0.01
2013-5-9,57.7,52.8,50.8,55.8,51.6,49.3,97,95,91,30.11,29.93,7,3,12,0.46
2013-5-10,58.6,54.2,50.4,55.8,52.5,49.6,97,94,87,29.97,29.92,8,3,13,0.02
2013-5-11,58.2,54.1,50.2,56.0,52.8,49.4,97,95,88,29.93,29.69,11,4,22,0.18
2013-5-12,64.7,55.7,50.0,58.9,50.9,37.0,98,85,50,29.74,29.54,11,3,21,0.05
2013-5-13,51.3,47.1,43.5,38.1,32.5,29.1,65,57,45,29.89,29.74,14,5,22,0.00
2013-5-15,57.9,51.9,49.0,48.2,46.0,40.4,94,81,57,29.92,29.66,10,5,20,0.21
2013-5-16,78.3,61.4,46.5,54.1,45.3,35.3,96,63,23,29.78,29.56,14,4,27,0.00
2013-5-17,66.1,57.1,49.5,45.0,41.9,36.9,77,58,36,30.20,29.78,9,3,17,0.00
2013-5-18,57.7,51.5,44.4,47.9,44.5,39.8,92,77,54,30.34,30.20,11,2,19,0.00
2013-5-19,56.3,50.9,48.0,49.0,47.3,45.8,96,87,75,30.38,30.24,9,2,13,0.09
2013-5-20,65.0,55.6,49.4,60.9,53.6,48.3,97,93,79,30.24,29.92,7,2,10,0.59
2013-5-21,53.2,50.1,48.0,51.8,48.4,46.4,96,94,89,30.12,29.96,10,4,18,0.25
2013-5-22,55.3,50.1,48.2,51.9,48.5,47.1,97,94,86,30.02,29.91,9,2,15,0.56
2013-5-23,59.2,53.1,48.0,58.3,51.6,46.9,97,95,89,29.96,29.80,10,2,20,0.14
2013-5-24,60.3,55.2,49.2,59.7,54.4,48.1,98,97,95,29.83,29.64,11,4,23,1.66
2013-5-25,52.5,48.3,46.0,50.2,47.0,44.8,97,95,87,29.83,29.64,13,6,27,0.72
2013-5-26,55.9,49.2,45.0,46.2,43.4,39.1,97,81,59,30.00,29.59,11,5,21,0.13
2013-5-27,68.8,56.2,43.1,43.0,38.1,32.3,83,54,29,30.16,30.00,10,4,23,0.00
2013-5-28,58.8,52.3,49.8,49.1,48.5,47.6,94,87,67,30.21,30.19,2,0,5,0.00
2013-5-29,55.4,52.6,49.1,54.3,51.4,47.5,97,96,94,30.20,30.00,4,1,9,0.22
2013-5-30,78.7,64.9,52.4,65.7,58.8,51.3,97,82,58,30.03,29.96,7,1,12,0.00
2013-5-31,81.6,71.4,58.5,67.4,62.4,56.6,96,74,59,30.05,29.88,8,2,12,0.00
2013-6-1,78.1,72.2,67.7,66.6,63.0,59.9,84,73,60,29.91,29.80,10,3,18,0.00
2013-6-2,75.0,66.0,59.7,66.3,61.1,57.3,96,85,72,29.81,29.67,12,4,28,0.51
2013-6-3,68.5,63.0,56.3,65.4,60.3,54.1,97,91,70,29.81,29.71,10,3,18,0.06
2013-6-4,62.1,58.8,55.7,45.5,44.3,43.1,67,59,53,30.06,29.96,5,2,12,0.00
2013-6-5,66.6,58.6,52.2,52.1,47.1,37.8,85,67,35,30.17,30.05,9,3,15,0.00
2013-6-6,66.0,58.1,52.7,55.6,50.9,44.6,94,78,50,30.21,30.14,10,2,14,0.00
2013-6-7,58.6,54.3,50.8,53.9,51.3,48.4,96,90,71,30.15,29.92,11,3,19,0.83
2013-6-8,70.8,58.1,52.8,60.4,55.3,51.7,97,91,68,29.98,29.63,11,4,20,1.07
2013-6-9,75.3,62.6,56.9,62.7,57.9,55.4,96,85,64,30.15,29.97,7,1,11,0.00
2013-6-10,65.8,59.2,55.5,56.9,54.8,52.6,95,86,71,30.21,30.05,6,2,11,0.02
2013-6-11,55.7,54.5,53.6,54.6,53.3,52.5,97,96,95,30.06,29.55,13,4,25,1.18
2013-6-12,61.6,57.8,54.2,57.7,55.3,53.2,97,91,80,29.76,29.52,8,3,17,0.11
2013-6-13,69.3,58.7,52.8,56.1,53.4,50.8,96,83,58,29.79,29.73,6,1,13,0.00
2013-6-14,71.0,59.0,53.4,58.3,54.7,51.8,97,86,57,29.74,29.66,8,2,13,0.00
2013-6-15,76.5,64.1,53.9,56.4,49.8,42.5,96,63,32,29.89,29.73,8,2,15,0.01
2013-6-16,70.2,61.9,57.4,57.5,53.5,47.6,90,75,57,29.90,29.70,8,2,14,0.00
2013-6-17,80.0,66.2,58.6,63.6,59.5,56.3,93,80,48,29.86,29.72,9,2,17,0.00
2013-6-18,66.8,60.6,57.2,60.9,57.3,54.3,96,89,67,29.99,29.84,5,1,9,0.11
2013-6-19,75.5,62.7,53.3,56.5,52.3,46.5,97,71,39,30.14,29.92,6,2,11,0.00
2013-6-20,73.3,62.3,52.4,58.7,53.0,47.4,87,73,44,30.25,30.14,8,2,14,0.00
2013-6-21,73.0,64.5,55.1,61.2,57.8,53.6,95,80,62,30.23,30.17,8,2,13,0.00
2013-6-22,73.7,65.5,58.8,65.1,60.8,57.1,95,85,70,30.20,30.09,8,1,14,0.00
2013-6-23,71.5,65.3,59.6,67.1,62.1,57.9,96,90,77,30.14,29.96,9,2,20,0.59
2013-6-24,90.5,76.4,62.4,73.1,67.9,61.1,97,77,51,29.97,29.81,7,2,13,0.00
2013-6-25,81.2,73.6,64.1,70.4,66.6,62.4,96,79,66,29.86,29.68,8,2,15,0.29
2013-6-26,80.3,66.4,56.4,71.8,63.7,55.3,97,91,73,29.89,29.68,8,2,19,0.10
2013-6-27,60.0,56.5,53.9,57.1,54.9,52.6,97,94,88,29.89,29.82,8,3,13,0.56
2013-6-28,64.1,59.0,55.1,63.0,58.1,54.0,98,97,96,29.83,29.53,13,3,23,0.74
2013-6-29,66.8,63.1,59.9,66.2,61.6,59.3,99,95,88,29.69,29.54,9,3,20,0.01
2013-6-30,71.3,64.5,58.8,66.4,62.2,57.8,98,92,80,29.93,29.69,8,3,14,0.00
2013-7-1,74.5,65.5,60.6,69.8,63.7,59.6,98,94,81,30.10,29.92,5,1,10,1.17
2013-7-2,64.5,60.0,56.2,63.9,59.3,55.4,98,98,97,30.23,30.07,6,1,11,0.53
2013-7-3,69.8,61.5,57.1,63.7,59.6,56.5,98,94,80,30.21,30.09,7,1,10,0.14
2013-7-4,82.3,74.1,63.2,73.8,69.3,62.3,98,85,72,30.16,30.02,7,1,12,0.00
2013-7-5,87.3,77.9,72.5,74.4,71.3,68.5,93,81,61,30.11,29.97,8,2,15,0.00
2013-7-6,88.7,82.0,73.2,75.4,70.4,63.6,93,68,56,30.01,29.90,8,3,15,0.00
2013-7-7,89.0,77.3,69.6,72.3,67.6,62.4,92,73,52,29.96,29.89,6,2,10,0.01
2013-7-8,73.5,67.2,63.2,71.6,62.7,58.9,97,86,67,30.08,29.89,7,1,13,0.26
2013-7-9,70.5,63.8,60.5,64.2,61.4,59.6,97,92,76,30.12,30.06,7,1,10,0.09
2013-7-10,65.6,61.8,59.4,65.0,60.7,58.6,98,96,91,30.09,29.77,8,2,12,0.08
2013-7-11,80.0,69.6,65.0,75.1,68.1,64.3,98,95,80,29.95,29.74,5,1,9,0.01
2013-7-12,79.8,68.9,60.8,65.8,60.6,58.1,92,76,53,30.21,29.95,8,2,15,0.00
2013-7-13,77.8,67.5,58.8,64.4,61.8,57.7,96,83,60,30.32,30.21,8,2,13,0.00
2013-7-14,85.0,74.1,63.2,72.0,67.2,61.9,96,80,63,30.28,30.17,7,2,11,0.00
2013-7-15,90.2,78.4,69.5,73.6,69.8,66.5,96,76,46,30.17,30.05,6,2,10,0.00
2013-7-16,92.0,78.8,71.2,72.8,68.8,65.5,86,72,52,30.14,30.07,7,2,11,0.00
2013-7-17,77.8,73.3,67.4,70.9,67.9,65.2,95,84,74,30.16,29.91,10,3,18,0.21
2013-7-18,83.8,74.0,68.1,74.0,69.8,66.9,97,87,69,30.00,29.91,7,2,11,0.09
2013-7-19,93.0,77.8,67.1,75.9,71.1,66.2,97,81,56,29.94,29.63,8,2,22,0.00
2013-7-20,89.0,79.4,70.4,75.1,69.1,66.0,89,71,53,29.76,29.59,10,3,17,0.00
2013-7-21,77.5,69.8,62.2,66.0,61.9,53.8,95,77,49,30.01,29.76,6,1,10,0.00
2013-7-22,71.8,66.3,62.2,65.1,62.7,60.7,97,89,75,30.04,29.91,7,2,10,0.00
2013-7-23,68.8,65.2,62.7,67.5,63.9,61.2,97,96,91,29.91,29.54,6,1,10,1.43
2013-7-24,80.1,69.7,59.7,72.3,64.5,52.1,98,85,66,29.97,29.57,7,2,18,0.01
2013-7-25,73.7,62.4,56.8,60.2,54.9,50.1,95,77,57,30.12,29.96,8,2,16,0.04
2013-7-26,69.8,65.0,61.2,64.8,62.0,59.6,96,90,82,30.08,29.89,8,3,17,0.12
2013-7-27,77.3,68.2,62.5,66.7,63.3,60.5,95,85,69,30.02,29.93,9,2,13,0.00
2013-7-28,68.5,64.2,61.2,65.0,62.6,60.1,97,95,88,30.05,30.00,7,2,12,0.03
2013-7-29,70.7,63.9,59.6,65.3,61.9,58.8,97,94,81,30.06,29.99,7,1,10,0.17
2013-7-30,76.0,66.6,60.0,65.9,62.1,57.3,98,86,65,30.07,30.00,9,1,15,0.00
2013-7-31,76.3,67.5,58.4,64.1,59.9,56.3,95,77,60,30.12,30.03,9,2,15,0.00
2013-8-1,75.8,68.6,59.4,68.7,64.8,58.3,97,88,76,30.04,29.87,6,2,13,0.00
2013-8-2,74.2,66.2,62.5,68.1,63.8,61.5,97,92,80,29.87,29.75,7,2,13,0.56
2013-8-3,78.5,67.8,61.9,65.6,60.3,57.8,97,79,50,29.82,29.72,9,2,15,0.01
2013-8-4,77.3,65.6,59.3,64.5,59.0,54.2,95,80,54,29.84,29.73,10,1,18,0.17
2013-8-5,75.8,64.8,55.3,56.8,52.1,44.4,91,66,44,30.03,29.83,8,2,16,0.00
2013-8-6,73.9,63.9,54.2,62.3,54.1,46.4,87,71,53,30.15,30.02,8,2,13,0.00
2013-8-7,73.3,64.3,54.3,65.3,59.6,51.7,94,85,74,30.19,30.11,7,2,11,0.00
2013-8-8,73.5,66.0,62.2,67.5,62.9,59.3,96,90,81,30.12,29.99,7,2,16,0.14
2013-8-9,67.8,65.4,63.4,66.9,64.5,62.2,98,97,95,30.01,29.73,9,3,16,0.95
2013-8-10,82.3,71.4,60.3,67.8,59.8,48.7,98,71,35,29.99,29.74,7,2,12,0.01
2013-8-11,74.7,64.7,55.5,60.5,55.1,49.9,88,72,44,30.05,29.97,8,2,15,0.00
2013-8-12,74.8,65.5,56.6,63.8,59.0,54.3,92,80,64,30.00,29.89,9,2,17,0.00
2013-8-13,71.2,64.5,58.8,64.8,61.3,56.8,97,89,73,29.90,29.68,8,1,15,0.00
2013-8-14,76.3,67.3,60.9,65.7,58.2,49.6,98,75,45,29.89,29.61,8,3,18,0.00
2013-8-15,76.2,65.4,55.5,56.7,53.4,50.6,86,67,46,30.07,29.89,7,2,15,0.00
2013-8-16,74.7,63.3,54.7,61.7,57.1,52.6,94,80,59,30.16,30.06,8,2,11,0.00
2013-8-17,76.3,64.9,56.3,63.3,57.7,52.6,96,78,59,30.27,30.16,8,2,14,0.00
2013-8-18,74.5,64.7,55.7,63.0,58.4,53.4,96,81,52,30.27,30.04,7,1,11,0.00
2013-8-19,85.7,71.5,59.8,67.3,62.1,58.1,95,74,50,30.04,29.88,5,1,10,0.00
2013-8-20,80.0,69.9,62.4,67.2,62.6,60.4,95,79,61,30.06,29.93,7,2,13,0.00
2013-8-21,77.0,68.6,61.1,67.6,63.3,59.7,96,84,70,30.12,29.97,8,2,14,0.00
2013-8-22,81.0,72.3,65.7,68.9,65.1,61.4,92,79,63,29.98,29.75,10,2,16,0.00
2013-8-23,79.2,71.1,60.6,67.8,57.0,50.1,85,63,38,30.13,29.75,7,3,19,0.00
2013-8-24,75.5,63.9,54.4,56.5,51.4,49.1,86,65,40,30.30,30.13,7,2,12,0.00
2013-8-25,74.8,63.4,54.1,60.9,56.1,51.3,94,78,51,30.35,30.14,9,2,13,0.00
2013-8-26,72.5,64.3,60.3,64.7,60.2,56.6,94,87,76,30.14,29.91,7,3,12,0.19
2013-8-27,73.1,67.1,63.4,66.8,64.1,61.8,95,90,80,29.89,29.84,5,1,8,0.00
2013-8-28,69.7,64.5,62.0,65.5,62.7,61.1,97,94,83,30.00,29.86,7,1,9,0.03
2013-8-29,70.3,64.5,59.0,63.6,61.1,56.3,97,89,73,30.09,29.97,8,2,13,0.00
2013-8-30,72.5,65.4,57.8,65.5,61.5,55.9,95,87,75,30.02,29.76,8,2,12,0.00
2013-8-31,78.2,68.8,64.5,70.0,65.8,63.0,96,90,75,29.82,29.75,8,2,15,0.00
2013-9-1,80.5,70.6,64.4,72.2,67.6,63.4,98,91,74,29.90,29.74,7,1,9,0.00
2013-9-2,68.4,64.8,61.1,67.8,64.1,60.2,98,98,97,29.89,29.73,9,3,18,3.82
2013-9-3,74.2,68.3,65.2,70.4,66.6,62.6,99,94,84,29.77,29.69,5,1,10,0.01
2013-9-4,81.5,69.8,60.1,64.1,59.4,55.4,95,72,44,29.87,29.73,6,2,12,0.00
2013-9-5,68.0,60.9,53.8,60.1,53.8,44.3,94,78,58,30.13,29.84,8,2,14,0.13
2013-9-6,66.7,57.8,46.9,53.4,47.3,40.6,90,69,44,30.23,30.03,9,2,16,0.00
2013-9-7,76.4,62.4,49.6,61.6,53.1,46.6,90,72,50,30.04,29.79,7,2,12,0.00
2013-9-8,67.7,61.5,50.9,58.7,49.7,40.4,90,66,46,30.07,29.71,10,3,20,0.03
2013-9-9,66.3,56.8,46.0,55.3,48.2,42.1,90,74,51,30.21,30.07,9,3,17,0.00
2013-9-10,64.5,60.5,56.3,63.0,56.9,50.6,97,88,76,30.12,30.02,8,2,15,0.06
2013-9-11,89.4,70.1,59.6,75.6,65.9,58.8,97,87,61,30.04,29.88,14,2,26,0.56
2013-9-12,69.3,65.2,61.8,68.2,64.1,60.9,98,96,93,29.97,29.65,8,2,16,1.43
2013-9-13,67.5,63.2,57.5,66.5,62.2,55.8,98,96,90,29.72,29.58,7,1,12,1.18
2013-9-14,70.0,61.1,55.0,60.7,55.8,50.9,96,83,65,30.02,29.71,6,2,10,0.00
2013-9-15,66.8,58.3,49.4,57.7,52.5,47.9,96,81,68,30.14,30.00,7,2,14,0.00
2013-9-16,67.8,57.7,46.7,56.7,50.3,37.0,89,77,60,30.26,29.97,10,3,21,0.01
2013-9-17,67.7,52.9,43.3,51.3,42.7,36.9,88,70,42,30.41,30.26,7,2,15,0.00
2013-9-18,64.8,52.6,45.8,53.8,47.8,44.5,96,85,56,30.29,30.20,8,1,10,0.00
2013-9-19,67.0,59.7,53.8,55.2,51.9,49.8,87,76,62,30.05,30.02,5,1,8,0.01
2013-9-20,74.7,60.2,51.0,58.8,54.2,49.6,96,82,54,30.11,30.01,5,1,8,0.00
2013-9-21,65.3,58.9,53.9,60.4,57.2,53.1,97,94,84,30.03,29.75,8,3,18,0.01
2013-9-22,70.2,61.5,53.3,62.4,57.0,45.8,97,86,53,29.77,29.59,11,4,18,0.43
2013-9-23,58.9,52.7,47.9,45.8,42.2,38.6,79,68,56,29.96,29.77,10,4,20,0.00
2013-9-24,58.2,51.8,43.6,46.3,43.1,40.1,90,73,57,29.95,29.83,8,2,16,0.00
2013-9-25,62.2,54.9,46.9,52.7,46.9,43.3,90,75,61,29.99,29.87,8,2,15,0.00
2013-9-26,68.0,57.2,49.4,53.3,49.2,44.9,86,75,58,30.14,29.99,8,2,13,0.00
2013-9-27,72.8,60.5,55.3,57.3,53.2,50.6,93,78,55,30.25,30.13,4,2,8,0.00
2013-9-28,70.5,58.3,51.6,57.7,53.4,50.2,96,85,62,30.34,30.24,5,1,9,0.00
2013-9-29,63.4,53.2,49.5,56.4,51.1,48.3,97,93,76,30.27,30.14,5,1,9,0.02
2013-9-30,64.5,52.7,46.2,54.6,49.8,45.1,97,90,69,30.15,29.97,6,1,9,0.01
2013-10-1,77.2,59.7,48.7,58.0,52.8,47.3,97,80,44,29.97,29.82,5,2,10,0.01
2013-10-2,79.5,66.0,56.3,63.8,57.6,53.8,92,75,53,29.89,29.75,5,2,9,0.00
2013-10-3,72.2,61.3,52.6,56.2,53.2,49.8,94,76,48,30.06,29.89,8,1,11,0.00
2013-10-4,71.5,58.5,50.3,54.2,51.4,45.1,96,80,40,30.09,30.02,4,1,8,0.00
2013-10-5,61.9,57.0,52.0,54.2,49.8,46.5,95,77,60,30.15,30.07,5,1,9,0.00
2013-10-6,53.6,52.0,49.8,52.2,46.2,39.9,96,81,67,30.29,30.13,9,3,15,0.09
2013-10-7,64.3,59.0,53.2,63.3,58.0,51.7,97,96,89,30.20,29.79,11,4,26,0.49
2013-10-8,64.1,56.4,45.9,57.2,46.4,41.5,89,71,46,30.39,29.83,7,3,15,0.00
2013-10-9,62.0,50.3,42.2,46.6,42.8,39.8,95,77,52,30.49,30.37,5,1,8,0.00
2013-10-10,62.7,51.0,42.6,53.0,47.2,41.3,96,88,70,30.37,30.19,7,1,10,0.01
2013-10-11,66.1,54.9,48.0,54.0,50.2,44.6,97,86,51,30.19,30.12,4,1,8,0.00
2013-10-12,58.4,54.1,49.1,53.1,50.2,45.8,94,87,76,30.43,30.17,11,3,20,0.01
2013-10-13,60.1,52.4,47.1,50.2,47.7,44.9,96,84,66,30.48,30.40,5,1,8,0.00
2013-10-14,59.4,52.5,44.9,51.6,47.6,43.3,95,84,65,30.40,30.25,9,2,14,0.01
2013-10-15,64.1,56.7,52.1,54.5,52.6,49.8,94,86,70,30.28,30.21,5,1,9,0.00
2013-10-16,60.6,55.7,53.2,55.5,53.6,51.8,96,93,81,30.21,29.91,7,2,13,0.00
2013-10-17,67.0,57.8,53.3,59.1,54.9,52.2,96,90,72,29.91,29.69,9,2,14,0.00
2013-10-18,67.0,59.5,54.5,58.7,52.2,44.2,97,79,53,29.83,29.57,10,4,18,0.26
2013-10-19,61.7,54.6,47.8,52.7,46.9,40.1,88,75,54,29.94,29.75,9,3,14,0.00
2013-10-20,61.7,55.9,49.1,52.6,43.1,33.5,93,65,36,29.96,29.66,10,4,22,0.00
2013-10-21,60.7,52.3,43.7,51.5,44.0,37.6,89,74,47,30.09,29.96,9,3,18,0.00
2013-10-22,60.2,54.6,47.4,54.9,50.2,43.1,92,85,76,29.97,29.69,9,3,15,0.00
2013-10-23,53.2,47.2,40.8,43.3,39.1,32.6,88,74,52,29.77,29.58,5,1,10,0.00
2013-10-24,51.7,46.3,40.6,37.4,32.7,29.0,76,60,43,29.83,29.59,14,5,24,0.00
2013-10-25,49.9,42.7,38.1,35.5,32.4,28.8,84,68,47,30.11,29.83,9,4,15,0.00
2013-10-26,51.1,44.4,34.8,39.0,32.8,28.9,83,64,48,30.12,29.87,13,4,25,0.00
2013-10-27,55.6,47.9,42.3,40.8,36.9,28.9,87,66,44,30.02,29.79,10,4,17,0.06
2013-10-28,56.7,44.7,38.2,37.5,32.3,25.4,77,62,46,30.35,30.01,13,5,25,0.00
2013-10-29,47.9,39.1,32.4,31.3,27.3,22.6,75,63,43,30.46,30.35,7,2,15,0.00
2013-10-30,52.7,41.2,34.7,33.4,30.5,26.2,84,67,43,30.35,30.17,10,1,16,0.00
2013-10-31,56.1,45.5,36.3,55.0,43.4,33.0,96,92,85,30.25,29.77,10,2,20,0.26
2013-11-1,67.0,59.1,54.1,60.3,55.0,49.5,97,87,66,29.77,29.36,14,7,25,0.15
2013-11-2,64.7,56.0,47.9,50.2,45.5,43.4,91,69,46,29.74,29.56,11,2,18,0.08
2013-11-3,47.6,40.0,33.6,44.8,28.6,20.3,90,64,44,30.42,29.73,11,5,23,0.01
2013-11-4,43.5,35.8,30.5,28.0,20.3,17.4,79,54,37,30.71,30.42,8,3,18,0.00
2013-11-5,47.7,39.2,29.7,36.7,31.5,24.6,84,74,59,30.72,30.50,9,2,14,0.00
2013-11-6,53.9,47.6,40.1,49.4,42.4,34.3,92,82,73,30.51,29.98,12,5,24,0.00
2013-11-7,58.6,51.8,42.3,55.4,47.1,31.0,93,84,64,29.98,29.63,9,4,16,0.03
2013-11-8,46.0,40.5,36.1,31.4,27.0,24.3,72,59,47,30.00,29.77,11,4,21,0.00
2013-11-9,44.8,39.7,35.9,30.7,24.5,22.3,69,54,42,30.14,30.00,9,3,16,0.00
2013-11-10,44.9,41.6,37.3,40.7,37.3,30.3,94,85,67,30.07,29.72,9,2,19,0.04
2013-11-11,46.1,42.6,38.7,37.0,31.4,28.1,81,65,50,30.04,29.75,9,4,16,0.00
2013-11-12,45.4,35.0,28.4,34.0,22.9,17.1,82,61,53,30.13,29.83,10,5,21,0.00
2013-11-13,36.2,30.1,25.7,18.1,15.2,12.2,65,54,41,30.24,30.09,9,4,17,0.00
2013-11-14,50.9,39.2,29.9,32.4,25.5,15.0,71,58,43,30.10,29.98,10,4,17,0.00
2013-11-15,51.9,43.0,33.9,40.7,30.6,22.3,91,64,33,30.17,30.07,9,2,16,0.00
2013-11-16,55.9,43.3,37.4,44.2,36.4,31.0,95,78,50,30.35,30.17,5,1,11,0.00
2013-11-17,51.5,46.7,40.5,50.4,44.9,39.2,96,94,88,30.35,29.91,9,2,18,0.11
2013-11-18,62.7,55.3,50.6,55.9,49.3,41.1,98,82,51,29.91,29.48,16,4,30,0.24
2013-11-19,39.2,35.2,32.5,22.9,19.8,18.1,59,53,48,30.22,29.87,14,6,24,0.00
2013-11-20,41.4,34.2,30.4,19.0,16.2,12.4,59,48,32,30.63,30.21,11,4,22,0.00
2013-11-21,47.1,36.8,28.1,30.5,21.1,15.0,77,54,34,30.64,30.34,7,2,11,0.00
2013-11-22,39.9,37.6,35.3,36.7,31.4,23.4,91,79,57,30.34,29.78,5,1,9,0.02
2013-11-23,41.3,37.3,28.8,39.4,25.9,16.1,93,66,37,29.83,29.69,18,6,24,0.00
2013-11-24,29.2,23.7,20.4,22.5,9.6,5.7,77,54,44,30.03,29.69,18,9,36,0.00
2013-11-25,31.8,25.4,19.2,16.2,5.8,0.7,59,44,28,30.32,30.03,16,5,29,0.00
2013-11-26,34.9,32.0,27.2,31.8,24.9,14.0,94,76,50,30.32,30.14,9,3,17,0.07
2013-11-27,54.6,47.3,33.3,54.0,46.4,31.8,98,97,94,30.14,29.25,17,6,33,2.52
2013-11-28,37.5,30.7,22.4,36.7,18.6,8.7,97,62,40,30.41,29.30,15,6,29,0.00
2013-11-29,28.5,23.3,20.2,13.0,10.2,5.2,70,58,38,30.75,30.41,8,3,17,0.00
2013-11-30,32.9,24.9,19.0,25.3,15.6,10.2,80,68,50,30.75,30.44,7,2,14,0.00
2013-12-1,35.8,34.0,32.3,34.8,31.0,24.3,96,89,72,30.44,30.06,9,2,17,0.51
2013-12-2,37.0,35.3,33.9,36.0,34.3,32.9,97,96,95,30.06,29.92,8,4,16,0.07
2013-12-3,44.7,38.0,34.4,39.4,35.2,30.0,97,90,78,29.93,29.84,6,3,12,0.00
2013-12-4,40.9,35.4,31.1,31.1,28.4,25.3,95,76,60,30.21,29.89,7,2,11,0.00
2013-12-5,45.6,37.0,30.7,44.5,35.1,28.3,97,93,87,30.25,29.91,5,1,8,0.02
2013-12-6,44.0,40.5,33.8,42.9,38.5,31.4,97,93,73,30.14,29.85,6,1,8,0.16
2013-12-7,37.5,32.4,26.2,31.8,23.8,12.1,95,72,47,30.44,30.07,11,2,22,0.09
2013-12-8,29.4,26.7,24.0,15.6,12.2,9.8,66,54,46,30.60,30.43,6,2,12,0.00
2013-12-9,37.9,29.6,24.6,36.4,24.6,11.5,95,83,52,30.55,29.85,13,5,23,0.07
2013-12-10,33.9,30.2,24.1,30.8,27.2,17.9,95,89,72,29.93,29.72,10,4,20,0.00
2013-12-11,30.9,25.5,21.3,19.2,16.5,13.7,83,69,49,30.15,29.92,13,5,22,0.00
2013-12-12,21.9,18.3,15.2,16.7,5.1,-1.7,80,56,40,30.25,29.98,12,4,20,0.01
2013-12-13,25.0,17.4,7.6,12.7,6.5,-3.3,75,62,46,30.38,29.90,16,6,24,0.00
2013-12-14,14.5,9.8,4.1,11.0,-0.8,-6.9,89,62,42,30.62,30.34,12,4,19,0.00
2013-12-15,20.5,16.2,13.0,17.3,12.8,10.1,90,87,77,30.34,29.39,14,6,28,0.00
2013-12-16,26.2,20.7,8.8,17.9,9.9,-1.9,89,64,42,30.18,29.65,13,6,23,0.00
2013-12-17,14.6,9.9,3.4,10.3,2.3,-5.1,89,71,59,30.28,29.99,9,4,18,0.00
2013-12-18,32.7,23.3,12.3,25.3,18.2,9.7,90,81,64,30.00,29.81,10,4,21,0.02
2013-12-19,29.6,26.7,24.7,23.5,21.5,19.8,83,80,77,30.03,29.99,12,6,21,0.00
2013-12-22,30.9,28.4,27.1,29.9,27.1,25.6,96,95,94,30.10,29.89,8,4,16,0.30
2013-12-23,32.8,30.1,27.1,31.8,29.0,25.9,96,95,95,30.13,29.98,6,2,11,0.00
2013-12-24,32.9,26.6,16.3,32.1,23.6,11.5,97,88,80,30.20,30.07,7,2,12,0.00
2013-12-25,20.9,14.5,8.5,14.9,9.0,1.8,86,78,72,30.54,30.20,8,3,16,0.00
2013-12-26,26.2,21.5,17.6,24.5,18.8,13.3,94,89,78,30.50,30.06,5,1,9,0.00
2013-12-27,33.6,26.7,20.6,26.3,22.0,18.6,93,83,70,30.23,30.11,10,3,16,0.00
2013-12-28,38.4,31.9,24.5,32.4,26.4,20.1,91,80,72,30.19,29.94,13,4,17,0.05
2013-12-29,36.9,32.1,25.6,33.6,30.3,23.8,96,93,86,30.04,29.51,8,2,16,0.48
2013-12-30,33.5,23.9,8.7,30.0,19.1,0.9,95,82,59,30.20,29.52,10,3,19,0.00
2013-12-31,16.1,9.7,5.4,10.8,3.4,-2.4,86,75,67,30.20,30.02,8,2,14,0.00
2014-1-1,22.4,16.8,11.9,10.8,8.4,4.7,88,70,50,30.39,30.10,13,5,21,0.00
2014-1-2,12.2,0.8,-4.5,4.9,-3.8,-8.3,84,81,69,30.41,29.96,14,7,28,0.00